createdAt,value
2022-08-17T00:02:25.971Z,28.18
2022-08-17T00:07:29.488Z,26.84
2022-08-17T00:12:44.546Z,26.07
2022-08-17T00:17:49.171Z,25.50
2022-08-17T00:23:09.966Z,25.07
2022-08-17T00:28:16.184Z,24.58
2022-08-17T00:33:24.361Z,25.39
2022-08-17T00:38:29.197Z,27.77
2022-08-17T00:43:37.761Z,27.97
2022-08-17T00:48:42.291Z,26.43
2022-08-17T00:53:51.475Z,25.47
2022-08-17T00:58:55.430Z,24.75
2022-08-17T01:03:59.989Z,24.25
2022-08-17T01:09:04.281Z,25.08
2022-08-17T01:14:09.032Z,27.42
2022-08-17T01:19:20.204Z,27.64
2022-08-17T01:24:23.352Z,26.06
2022-08-17T01:29:30.861Z,25.12
2022-08-17T01:34:42.676Z,24.59
2022-08-17T01:39:54.224Z,25.36
2022-08-17T01:45:03.168Z,27.62
2022-08-17T01:50:16.507Z,27.66
2022-08-17T01:55:27.454Z,25.98
2022-08-17T02:00:59.694Z,24.97
2022-08-17T02:05:53.432Z,24.29
2022-08-17T02:10:56.448Z,25.05
2022-08-17T02:16:00.735Z,27.31
2022-08-17T02:21:04.891Z,27.47
2022-08-17T02:26:08.065Z,25.94
2022-08-17T02:31:12.670Z,24.99
2022-08-17T02:36:15.426Z,24.44
2022-08-17T02:41:18.882Z,25.15
2022-08-17T02:46:22.663Z,27.48
2022-08-17T02:51:27.678Z,27.15
2022-08-17T02:56:30.409Z,25.66
2022-08-17T03:01:33.168Z,24.85
2022-08-17T03:06:36.171Z,24.30
2022-08-17T03:11:38.985Z,25.01
2022-08-17T03:16:41.696Z,27.30
2022-08-17T03:21:45.170Z,27.19
2022-08-17T03:26:47.964Z,25.64
2022-08-17T03:31:50.643Z,24.74
2022-08-17T03:36:53.357Z,25.31
2022-08-17T03:42:07.049Z,27.52
2022-08-17T03:47:29.266Z,26.67
2022-08-17T03:52:51.883Z,25.27
2022-08-17T03:57:55.472Z,24.49
2022-08-17T04:02:58.219Z,25.14
2022-08-17T04:08:01.038Z,27.36
2022-08-17T04:13:07.891Z,26.99
2022-08-17T04:18:10.990Z,25.37
2022-08-17T04:23:17.167Z,24.43
2022-08-17T04:28:21.085Z,25.00
2022-08-17T04:33:27.362Z,27.20
2022-08-17T04:38:35.869Z,27.27
2022-08-17T04:43:40.809Z,25.63
2022-08-17T04:48:47.302Z,24.69
2022-08-17T04:53:55.167Z,25.32
2022-08-17T04:59:09.047Z,27.55
2022-08-17T05:04:32.802Z,27.22
2022-08-17T05:09:37.474Z,25.65
2022-08-17T05:14:40.929Z,24.86
2022-08-17T05:19:43.620Z,25.55
2022-08-17T05:24:53.367Z,27.70
2022-08-17T05:29:57.288Z,27.43
2022-08-17T05:35:00.620Z,25.90
2022-08-17T05:40:04.558Z,25.05
2022-08-17T05:45:08.369Z,25.79
2022-08-17T05:50:26.080Z,28.04
2022-08-17T05:55:38.914Z,27.90
2022-08-17T06:00:56.088Z,26.27
2022-08-17T06:06:31.356Z,25.41
2022-08-17T06:11:42.820Z,26.58
2022-08-17T06:16:51.589Z,27.90
2022-08-17T06:21:56.004Z,26.66
2022-08-17T06:27:07.414Z,26.00
2022-08-17T06:32:12.854Z,27.02
2022-08-17T06:37:39.248Z,28.64
2022-08-17T06:43:14.779Z,27.51
2022-08-17T06:48:32.724Z,26.98
2022-08-17T06:53:59.730Z,26.86
2022-08-17T06:59:03.264Z,28.15
2022-08-17T07:04:14.429Z,29.69
2022-08-17T07:09:34.360Z,28.74
2022-08-17T07:14:51.817Z,28.15
2022-08-17T07:20:05.533Z,27.92
2022-08-17T07:25:11.909Z,27.85
2022-08-17T07:30:26.126Z,27.75
2022-08-17T07:35:31.358Z,27.72
2022-08-17T07:40:49.983Z,27.91
2022-08-17T07:46:16.896Z,28.05
2022-08-17T07:51:29.396Z,28.23
2022-08-17T07:56:37.892Z,28.35
2022-08-17T08:01:42.518Z,28.51
2022-08-17T08:06:54.446Z,28.69
2022-08-17T08:11:57.222Z,28.84
2022-08-17T08:17:04.526Z,29.01
2022-08-17T08:22:16.349Z,29.22
2022-08-17T08:27:38.618Z,29.43
2022-08-17T08:33:20.216Z,29.66
2022-08-17T08:38:39.320Z,29.93
2022-08-17T08:44:03.659Z,30.20
2022-08-17T08:50:03.331Z,30.44
2022-08-17T08:55:19.703Z,30.69
2022-08-17T09:00:25.617Z,30.87
2022-08-17T09:05:48.411Z,30.99
2022-08-17T09:10:51.249Z,31.22
2022-08-17T09:16:00.073Z,31.51
2022-08-17T09:21:33.964Z,31.44
2022-08-17T09:26:54.053Z,31.11
2022-08-17T09:32:01.608Z,31.23
2022-08-17T09:37:23.255Z,31.30
2022-08-17T09:42:35.638Z,31.22
2022-08-17T09:47:48.018Z,31.30
2022-08-17T09:52:58.216Z,31.66
2022-08-17T09:58:30.266Z,31.96
2022-08-17T10:03:43.101Z,32.31
2022-08-17T10:09:09.738Z,32.65
2022-08-17T10:14:35.961Z,32.98
2022-08-17T10:19:51.995Z,33.14
2022-08-17T10:25:22.935Z,32.94
2022-08-17T10:30:31.298Z,32.96
2022-08-17T10:35:39.778Z,33.12
2022-08-17T10:40:54.847Z,33.35
2022-08-17T10:46:30.019Z,33.60
2022-08-17T10:51:40.060Z,33.92
2022-08-17T10:56:50.505Z,34.21
2022-08-17T11:02:03.586Z,34.47
2022-08-17T11:07:25.959Z,34.62
2022-08-17T11:12:47.774Z,34.53
2022-08-17T11:18:11.531Z,34.58
2022-08-17T11:23:29.612Z,34.70
2022-08-17T11:28:45.182Z,34.92
2022-08-17T11:33:59.225Z,34.97
2022-08-17T11:39:06.229Z,35.08
2022-08-17T11:44:15.701Z,35.33
2022-08-17T11:50:01.034Z,35.50
2022-08-17T11:55:31.927Z,35.57
2022-08-17T12:00:46.372Z,35.32
2022-08-17T12:05:53.632Z,34.87
2022-08-17T12:11:07.010Z,34.66
2022-08-17T12:16:15.467Z,34.88
2022-08-17T12:21:27.065Z,35.01
2022-08-17T12:26:33.394Z,35.12
2022-08-17T12:31:44.424Z,35.07
2022-08-17T12:36:50.470Z,34.84
2022-08-17T12:42:01.959Z,34.97
2022-08-17T12:47:21.834Z,34.97
2022-08-17T12:52:33.131Z,34.71
2022-08-17T12:57:38.472Z,34.57
2022-08-17T13:02:58.860Z,34.40
2022-08-17T13:08:06.166Z,34.21
2022-08-17T13:13:21.398Z,34.01
2022-08-17T13:18:49.902Z,33.75
2022-08-17T13:23:57.579Z,33.54
2022-08-17T13:29:03.945Z,33.44
2022-08-17T13:34:12.779Z,33.47
2022-08-17T13:39:25.383Z,33.68
2022-08-17T13:44:39.548Z,33.89
2022-08-17T13:49:48.755Z,33.94
2022-08-17T13:54:52.278Z,33.87
2022-08-17T14:00:18.045Z,33.79
2022-08-17T14:05:20.756Z,33.76
2022-08-17T14:10:25.403Z,33.81
2022-08-17T14:15:55.064Z,33.76
2022-08-17T14:20:53.282Z,33.57
2022-08-17T14:25:55.957Z,33.39
2022-08-17T14:30:59.030Z,33.25
2022-08-17T14:36:01.965Z,33.12
2022-08-17T14:41:05.231Z,33.30
2022-08-17T14:46:07.963Z,33.57
2022-08-17T14:51:11.933Z,33.62
2022-08-17T14:56:14.808Z,33.60
2022-08-17T15:01:20.278Z,33.46
2022-08-17T15:06:24.851Z,33.33
2022-08-17T15:11:27.408Z,33.19
2022-08-17T15:16:30.190Z,33.04
2022-08-17T15:21:36.004Z,32.90
2022-08-17T15:26:39.257Z,32.78
2022-08-17T15:31:42.014Z,32.69
2022-08-17T15:36:49.497Z,32.78
2022-08-17T15:41:58.626Z,32.87
2022-08-17T15:47:01.984Z,32.78
2022-08-17T15:52:26.298Z,32.67
2022-08-17T15:57:28.854Z,32.70
2022-08-17T16:03:13.819Z,33.28
2022-08-17T16:07:56.728Z,34.18
2022-08-17T16:12:59.717Z,34.52
2022-08-17T16:18:03.037Z,34.37
2022-08-17T16:23:05.838Z,34.08
2022-08-17T16:28:08.558Z,33.76
2022-08-17T16:33:11.872Z,33.40
2022-08-17T16:38:14.592Z,33.03
2022-08-17T16:43:17.374Z,32.68
2022-08-17T16:48:20.102Z,32.37
2022-08-17T16:53:23.166Z,32.07
2022-08-17T16:58:26.080Z,31.79
2022-08-17T17:03:31.380Z,31.51
2022-08-17T17:08:48.552Z,31.25
2022-08-17T17:13:57.916Z,31.01
2022-08-17T17:19:10.399Z,30.79
2022-08-17T17:24:29.925Z,30.58
2022-08-17T17:29:48.747Z,30.35
2022-08-17T17:35:00.818Z,30.15
2022-08-17T17:40:12.542Z,29.97
2022-08-17T17:45:26.205Z,29.78
2022-08-17T17:50:48.953Z,29.63
2022-08-17T17:56:01.739Z,29.44
2022-08-17T18:01:29.907Z,29.25
2022-08-17T18:07:03.145Z,29.07
2022-08-17T18:12:19.954Z,28.90
2022-08-17T18:17:23.277Z,28.73
2022-08-17T18:22:26.378Z,28.54
2022-08-17T18:27:39.009Z,28.35
2022-08-17T18:32:46.478Z,28.19
2022-08-17T18:37:52.184Z,28.07
2022-08-17T18:42:55.146Z,27.98
2022-08-17T18:47:57.957Z,27.90
2022-08-17T18:53:33.222Z,27.83
2022-08-17T18:58:36.922Z,27.72
2022-08-17T19:03:43.286Z,27.60
2022-08-17T19:08:46.151Z,27.48
2022-08-17T19:14:08.120Z,27.39
2022-08-17T19:19:26.814Z,27.30
2022-08-17T19:24:33.695Z,27.18
2022-08-17T19:30:08.421Z,27.08
2022-08-17T19:35:17.412Z,26.95
2022-08-17T19:40:55.763Z,26.82
2022-08-17T19:46:07.589Z,26.72
2022-08-17T19:51:29.199Z,26.60
2022-08-17T19:56:44.060Z,26.47
2022-08-17T20:02:09.095Z,26.36
2022-08-17T20:07:23.870Z,26.28
2022-08-17T20:12:31.659Z,26.23
2022-08-17T20:17:43.826Z,26.15
2022-08-17T20:23:12.809Z,26.08
2022-08-17T20:28:18.232Z,26.03
2022-08-17T20:33:32.668Z,25.96
2022-08-17T20:38:51.201Z,25.89
2022-08-17T20:43:56.854Z,25.79
2022-08-17T20:49:45.248Z,25.71
2022-08-17T20:54:52.260Z,25.64
2022-08-17T20:59:56.979Z,25.58
2022-08-17T21:05:07.268Z,25.51
2022-08-17T21:10:14.069Z,25.41
2022-08-17T21:15:35.908Z,25.29
2022-08-17T21:21:17.906Z,25.18
2022-08-17T21:26:29.651Z,25.10
2022-08-17T21:31:40.995Z,25.00
2022-08-17T21:36:50.903Z,24.89
2022-08-17T21:41:56.815Z,24.79
2022-08-17T21:47:19.943Z,24.68
2022-08-17T21:52:27.137Z,24.57
2022-08-17T21:57:31.023Z,24.47
2022-08-17T22:02:41.791Z,24.40
2022-08-17T22:07:53.050Z,24.32
2022-08-17T22:13:18.193Z,24.24
2022-08-17T22:18:28.905Z,24.13
2022-08-17T22:23:55.964Z,23.98
2022-08-17T22:28:59.030Z,25.23
2022-08-17T22:34:04.710Z,27.53
2022-08-17T22:39:08.390Z,27.89
2022-08-17T22:44:14.316Z,26.48
2022-08-17T22:49:31.741Z,25.59
2022-08-17T22:54:53.300Z,25.03
2022-08-17T22:59:57.577Z,24.65
2022-08-17T23:05:09.701Z,24.34
2022-08-17T23:10:14.475Z,24.08
2022-08-17T23:15:19.177Z,23.86
2022-08-17T23:20:21.919Z,23.66
2022-08-17T23:25:30.719Z,24.62
2022-08-17T23:30:36.913Z,27.24
2022-08-17T23:35:41.100Z,27.09
2022-08-17T23:40:44.158Z,25.75
2022-08-17T23:45:47.139Z,24.92
2022-08-17T23:50:51.837Z,24.34
2022-08-17T23:56:03.849Z,23.95
